sensor_id;sensor_type;location;lat;lon;timestamp;pressure;altitude;pressure_sealevel;temperature;humidity
47104;BME280;32853;52.164;5.400;2023-02-19T00:00:08;101644.91;;;12.45;100.00
47104;BME280;32853;52.164;5.400;2023-02-19T00:02:40;101640.38;;;12.48;100.00
47104;BME280;32853;52.164;5.400;2023-02-19T00:05:05;101631.44;;;12.29;100.00
47104;BME280;32853;52.164;5.400;2023-02-19T00:07:30;101595.69;;;12.02;100.00
47104;BME280;32853;52.164;5.400;2023-02-19T00:09:56;101652.34;;;12.32;100.00
47104;BME280;32853;52.164;5.400;2023-02-19T00:12:21;101613.38;;;11.95;100.00
47104;BME280;32853;52.164;5.400;2023-02-19T00:14:46;101649.31;;;12.18;100.00
47104;BME280;32853;52.164;5.400;2023-02-19T00:17:12;101651.97;;;12.16;100.00
47104;BME280;32853;52.164;5.400;2023-02-19T00:19:37;101617.97;;;11.88;100.00
47104;BME280;32853;52.164;5.400;2023-02-19T00:22:08;101600.19;;;11.98;100.00
47104;BME280;32853;52.164;5.400;2023-02-19T00:24:33;101613.31;;;12.23;100.00
47104;BME280;32853;52.164;5.400;2023-02-19T00:26:59;101650.50;;;12.34;100.00
47104;BME280;32853;52.164;5.400;2023-02-19T00:29:24;101627.03;;;12.05;100.00
47104;BME280;32853;52.164;5.400;2023-02-19T00:31:49;101652.84;;;12.17;100.00
47104;BME280;32853;52.164;5.400;2023-02-19T00:34:15;101666.56;;;12.25;100.00
47104;BME280;32853;52.164;5.400;2023-02-19T00:36:41;101640.53;;;12.19;100.00
47104;BME280;32853;52.164;5.400;2023-02-19T00:39:07;101658.44;;;12.06;100.00
47104;BME280;32853;52.164;5.400;2023-02-19T00:41:33;101644.47;;;12.06;100.00
47104;BME280;32853;52.164;5.400;2023-02-19T00:44:01;101665.59;;;12.28;100.00
47104;BME280;32853;52.164;5.400;2023-02-19T00:46:30;101668.28;;;12.26;100.00
47104;BME280;32853;52.164;5.400;2023-02-19T00:49:04;101667.22;;;12.32;100.00
47104;BME280;32853;52.164;5.400;2023-02-19T00:51:33;101642.56;;;12.11;100.00
47104;BME280;32853;52.164;5.400;2023-02-19T00:54:04;101653.63;;;12.20;100.00
47104;BME280;32853;52.164;5.400;2023-02-19T00:56:31;101663.94;;;12.25;100.00
47104;BME280;32853;52.164;5.400;2023-02-19T00:58:57;101658.75;;;12.24;100.00
47104;BME280;32853;52.164;5.400;2023-02-19T01:01:32;101664.47;;;12.35;100.00
47104;BME280;32853;52.164;5.400;2023-02-19T01:03:58;101651.19;;;12.14;100.00
47104;BME280;32853;52.164;5.400;2023-02-19T01:06:31;101652.91;;;12.15;100.00
47104;BME280;32853;52.164;5.400;2023-02-19T01:08:57;101672.03;;;12.17;100.00
47104;BME280;32853;52.164;5.400;2023-02-19T01:11:34;101679.66;;;12.25;100.00
47104;BME280;32853;52.164;5.400;2023-02-19T01:14:12;101679.00;;;12.45;100.00
47104;BME280;32853;52.164;5.400;2023-02-19T01:16:37;101676.56;;;12.39;100.00
47104;BME280;32853;52.164;5.400;2023-02-19T01:19:10;101680.41;;;12.29;100.00
47104;BME280;32853;52.164;5.400;2023-02-19T01:21:38;101686.94;;;12.17;100.00
47104;BME280;32853;52.164;5.400;2023-02-19T01:24:04;101687.25;;;12.34;100.00
47104;BME280;32853;52.164;5.400;2023-02-19T01:26:31;101688.56;;;12.21;100.00
47104;BME280;32853;52.164;5.400;2023-02-19T01:29:06;101695.34;;;12.27;100.00
47104;BME280;32853;52.164;5.400;2023-02-19T01:31:31;101684.81;;;12.28;100.00
47104;BME280;32853;52.164;5.400;2023-02-19T01:33:59;101668.75;;;12.12;100.00
47104;BME280;32853;52.164;5.400;2023-02-19T01:36:28;101683.88;;;12.31;100.00
47104;BME280;32853;52.164;5.400;2023-02-19T01:38:54;101697.63;;;12.37;100.00
47104;BME280;32853;52.164;5.400;2023-02-19T01:41:24;101674.75;;;12.41;100.00
47104;BME280;32853;52.164;5.400;2023-02-19T01:46:42;101695.50;;;12.48;100.00
47104;BME280;32853;52.164;5.400;2023-02-19T01:49:22;101688.56;;;12.21;100.00
47104;BME280;32853;52.164;5.400;2023-02-19T01:52:12;101703.84;;;12.08;100.00
47104;BME280;32853;52.164;5.400;2023-02-19T01:54:42;101696.44;;;12.21;100.00
47104;BME280;32853;52.164;5.400;2023-02-19T01:57:20;101703.09;;;12.31;100.00
47104;BME280;32853;52.164;5.400;2023-02-19T02:00:07;101630.00;;;11.94;100.00
47104;BME280;32853;52.164;5.400;2023-02-19T02:02:51;101694.88;;;12.40;100.00
47104;BME280;32853;52.164;5.400;2023-02-19T02:05:36;101695.16;;;12.33;100.00
47104;BME280;32853;52.164;5.400;2023-02-19T02:08:22;101690.47;;;12.16;100.00
47104;BME280;32853;52.164;5.400;2023-02-19T02:11:07;101689.53;;;12.17;100.00
47104;BME280;32853;52.164;5.400;2023-02-19T02:13:33;101706.00;;;12.22;100.00
47104;BME280;32853;52.164;5.400;2023-02-19T02:16:09;101666.66;;;11.96;100.00
47104;BME280;32853;52.164;5.400;2023-02-19T02:21:16;101669.31;;;11.94;100.00
47104;BME280;32853;52.164;5.400;2023-02-19T02:26:30;101713.16;;;12.17;100.00
47104;BME280;32853;52.164;5.400;2023-02-19T02:29:30;101703.34;;;12.24;100.00
47104;BME280;32853;52.164;5.400;2023-02-19T02:32:19;101705.03;;;12.25;100.00
47104;BME280;32853;52.164;5.400;2023-02-19T02:34:52;101709.53;;;12.21;100.00
47104;BME280;32853;52.164;5.400;2023-02-19T02:37:18;101707.56;;;12.28;100.00
47104;BME280;32853;52.164;5.400;2023-02-19T02:39:45;101720.63;;;12.29;100.00
47104;BME280;32853;52.164;5.400;2023-02-19T02:42:12;101694.56;;;11.97;100.00
47104;BME280;32853;52.164;5.400;2023-02-19T02:44:57;101713.16;;;12.17;100.00
47104;BME280;32853;52.164;5.400;2023-02-19T02:47:51;101706.31;;;12.13;100.00
47104;BME280;32853;52.164;5.400;2023-02-19T02:50:22;101708.06;;;12.12;100.00
47104;BME280;32853;52.164;5.400;2023-02-19T02:52:52;101721.78;;;12.20;100.00
47104;BME280;32853;52.164;5.400;2023-02-19T02:55:41;101727.06;;;12.19;100.00
47104;BME280;32853;52.164;5.400;2023-02-19T02:58:09;101728.84;;;12.18;100.00
47104;BME280;32853;52.164;5.400;2023-02-19T03:00:35;101727.91;;;12.21;100.00
47104;BME280;32853;52.164;5.400;2023-02-19T03:03:23;101712.56;;;12.09;100.00
47104;BME280;32853;52.164;5.400;2023-02-19T03:05:56;101731.78;;;12.09;100.00
47104;BME280;32853;52.164;5.400;2023-02-19T03:11:04;101726.88;;;12.25;100.00
47104;BME280;32853;52.164;5.400;2023-02-19T03:14:06;101731.16;;;12.01;100.00
47104;BME280;32853;52.164;5.400;2023-02-19T03:16:57;101733.63;;;12.06;100.00
47104;BME280;32853;52.164;5.400;2023-02-19T03:19:52;101733.94;;;11.95;100.00
47104;BME280;32853;52.164;5.400;2023-02-19T03:22:27;101574.84;;;10.87;100.00
47104;BME280;32853;52.164;5.400;2023-02-19T03:24:59;101708.47;;;11.71;100.00
47104;BME280;32853;52.164;5.400;2023-02-19T03:27:46;101743.19;;;12.07;100.00
47104;BME280;32853;52.164;5.400;2023-02-19T03:30:18;101744.44;;;11.95;100.00
47104;BME280;32853;52.164;5.400;2023-02-19T03:33:12;101743.16;;;11.80;100.00
47104;BME280;32853;52.164;5.400;2023-02-19T03:35:44;101709.53;;;11.65;100.00
47104;BME280;32853;52.164;5.400;2023-02-19T03:38:18;101711.56;;;11.55;100.00
47104;BME280;32853;52.164;5.400;2023-02-19T03:43:46;101745.63;;;11.85;100.00
47104;BME280;32853;52.164;5.400;2023-02-19T03:46:25;101754.00;;;11.98;100.00
47104;BME280;32853;52.164;5.400;2023-02-19T03:49:00;101757.25;;;12.04;100.00
47104;BME280;32853;52.164;5.400;2023-02-19T03:51:30;101757.31;;;12.03;100.00
47104;BME280;32853;52.164;5.400;2023-02-19T03:54:07;101761.19;;;11.91;100.00
47104;BME280;32853;52.164;5.400;2023-02-19T03:57:00;101769.78;;;11.95;100.00
47104;BME280;32853;52.164;5.400;2023-02-19T04:01:56;101778.84;;;11.84;100.00
47104;BME280;32853;52.164;5.400;2023-02-19T04:04:49;101777.91;;;11.87;100.00
47104;BME280;32853;52.164;5.400;2023-02-19T04:07:24;101790.53;;;12.02;100.00
47104;BME280;32853;52.164;5.400;2023-02-19T04:09:52;101787.88;;;12.04;100.00
47104;BME280;32853;52.164;5.400;2023-02-19T04:12:20;101795.31;;;11.89;100.00
47104;BME280;32853;52.164;5.400;2023-02-19T04:15:09;101788.25;;;11.91;100.00
47104;BME280;32853;52.164;5.400;2023-02-19T04:20:22;101798.94;;;11.84;100.00
47104;BME280;32853;52.164;5.400;2023-02-19T04:22:50;101805.63;;;11.94;100.00
47104;BME280;32853;52.164;5.400;2023-02-19T04:25:15;101799.31;;;12.01;100.00
47104;BME280;32853;52.164;5.400;2023-02-19T04:27:43;101817.50;;;11.76;100.00
47104;BME280;32853;52.164;5.400;2023-02-19T04:30:11;101802.22;;;11.92;100.00
47104;BME280;32853;52.164;5.400;2023-02-19T04:32:37;101814.03;;;12.05;100.00
47104;BME280;32853;52.164;5.400;2023-02-19T04:35:03;101822.41;;;11.88;100.00
47104;BME280;32853;52.164;5.400;2023-02-19T04:37:28;101785.50;;;11.65;100.00
47104;BME280;32853;52.164;5.400;2023-02-19T04:39:53;101820.56;;;11.92;100.00
47104;BME280;32853;52.164;5.400;2023-02-19T04:42:19;101819.06;;;11.83;100.00
47104;BME280;32853;52.164;5.400;2023-02-19T04:44:44;101807.94;;;11.75;100.00
47104;BME280;32853;52.164;5.400;2023-02-19T04:47:09;101815.69;;;11.80;100.00
47104;BME280;32853;52.164;5.400;2023-02-19T04:49:35;101812.19;;;11.79;100.00
47104;BME280;32853;52.164;5.400;2023-02-19T04:52:00;101803.22;;;11.57;100.00
47104;BME280;32853;52.164;5.400;2023-02-19T04:54:25;101848.22;;;11.71;100.00
47104;BME280;32853;52.164;5.400;2023-02-19T04:56:51;101839.13;;;11.53;100.00
47104;BME280;32853;52.164;5.400;2023-02-19T04:59:16;101856.84;;;11.75;100.00
47104;BME280;32853;52.164;5.400;2023-02-19T05:01:46;101866.97;;;11.88;100.00
47104;BME280;32853;52.164;5.400;2023-02-19T05:04:24;101826.50;;;11.68;100.00
47104;BME280;32853;52.164;5.400;2023-02-19T05:07:06;101843.19;;;11.95;100.00
47104;BME280;32853;52.164;5.400;2023-02-19T05:09:31;101848.75;;;11.84;100.00
47104;BME280;32853;52.164;5.400;2023-02-19T05:12:05;101859.72;;;11.97;100.00
47104;BME280;32853;52.164;5.400;2023-02-19T05:14:30;101876.00;;;12.08;100.00
47104;BME280;32853;52.164;5.400;2023-02-19T05:16:56;101858.53;;;11.77;100.00
47104;BME280;32853;52.164;5.400;2023-02-19T05:19:39;101886.78;;;11.99;100.00
47104;BME280;32853;52.164;5.400;2023-02-19T05:22:04;101833.41;;;11.70;100.00
47104;BME280;32853;52.164;5.400;2023-02-19T05:24:30;101876.94;;;11.76;100.00
47104;BME280;32853;52.164;5.400;2023-02-19T05:27:05;101890.69;;;11.84;100.00
47104;BME280;32853;52.164;5.400;2023-02-19T05:29:33;101898.59;;;11.82;100.00
47104;BME280;32853;52.164;5.400;2023-02-19T05:31:58;101877.63;;;11.82;100.00
47104;BME280;32853;52.164;5.400;2023-02-19T05:34:23;101900.41;;;11.80;100.00
47104;BME280;32853;52.164;5.400;2023-02-19T05:36:49;101877.72;;;11.79;100.00
47104;BME280;32853;52.164;5.400;2023-02-19T05:39:14;101886.41;;;11.81;100.00
47104;BME280;32853;52.164;5.400;2023-02-19T05:41:42;101880.50;;;11.72;100.00
47104;BME280;32853;52.164;5.400;2023-02-19T05:44:09;101885.44;;;11.53;100.00
47104;BME280;32853;52.164;5.400;2023-02-19T05:46:34;101883.88;;;11.77;100.00
47104;BME280;32853;52.164;5.400;2023-02-19T05:48:59;101889.75;;;11.86;100.00
47104;BME280;32853;52.164;5.400;2023-02-19T05:51:25;101898.34;;;11.91;100.00
47104;BME280;32853;52.164;5.400;2023-02-19T05:53:51;101853.84;;;11.57;100.00
47104;BME280;32853;52.164;5.400;2023-02-19T05:56:34;101878.91;;;11.68;100.00
47104;BME280;32853;52.164;5.400;2023-02-19T05:59:19;101897.91;;;11.74;100.00
47104;BME280;32853;52.164;5.400;2023-02-19T06:01:45;101894.72;;;11.64;100.00
47104;BME280;32853;52.164;5.400;2023-02-19T06:04:17;101917.50;;;11.61;100.00
47104;BME280;32853;52.164;5.400;2023-02-19T06:06:47;101894.16;;;11.52;100.00
47104;BME280;32853;52.164;5.400;2023-02-19T06:09:12;101850.47;;;11.21;100.00
47104;BME280;32853;52.164;5.400;2023-02-19T06:11:38;101798.34;;;11.12;100.00
47104;BME280;32853;52.164;5.400;2023-02-19T06:14:04;101908.47;;;11.71;100.00
47104;BME280;32853;52.164;5.400;2023-02-19T06:16:31;101891.22;;;11.64;100.00
47104;BME280;32853;52.164;5.400;2023-02-19T06:19:03;101949.16;;;11.86;100.00
47104;BME280;32853;52.164;5.400;2023-02-19T06:21:29;101832.53;;;11.06;100.00
47104;BME280;32853;52.164;5.400;2023-02-19T06:23:54;101947.75;;;11.73;100.00
47104;BME280;32853;52.164;5.400;2023-02-19T06:26:23;101950.31;;;11.74;100.00
47104;BME280;32853;52.164;5.400;2023-02-19T06:28:50;101955.56;;;11.76;100.00
47104;BME280;32853;52.164;5.400;2023-02-19T06:31:19;101955.84;;;11.63;100.00
47104;BME280;32853;52.164;5.400;2023-02-19T06:33:45;101959.34;;;11.64;100.00
47104;BME280;32853;52.164;5.400;2023-02-19T06:36:13;101959.19;;;11.70;100.00
47104;BME280;32853;52.164;5.400;2023-02-19T06:38:49;101974.69;;;11.79;100.00
47104;BME280;32853;52.164;5.400;2023-02-19T06:41:14;101968.31;;;11.55;100.00
47104;BME280;32853;52.164;5.400;2023-02-19T06:43:40;101935.16;;;11.54;100.00
47104;BME280;32853;52.164;5.400;2023-02-19T06:46:15;101972.47;;;11.62;100.00
47104;BME280;32853;52.164;5.400;2023-02-19T06:48:59;101934.19;;;11.24;100.00
47104;BME280;32853;52.164;5.400;2023-02-19T06:51:24;101965.78;;;11.51;100.00
47104;BME280;32853;52.164;5.400;2023-02-19T06:53:54;101971.03;;;11.51;100.00
47104;BME280;32853;52.164;5.400;2023-02-19T06:56:28;101980.19;;;11.69;100.00
47104;BME280;32853;52.164;5.400;2023-02-19T06:58:56;101972.97;;;11.44;100.00
47104;BME280;32853;52.164;5.400;2023-02-19T07:01:22;101990.94;;;11.58;100.00
47104;BME280;32853;52.164;5.400;2023-02-19T07:03:48;101982.50;;;11.47;100.00
47104;BME280;32853;52.164;5.400;2023-02-19T07:06:13;101983.81;;;11.64;100.00
47104;BME280;32853;52.164;5.400;2023-02-19T07:08:39;101977.38;;;11.42;100.00
47104;BME280;32853;52.164;5.400;2023-02-19T07:11:04;102016.91;;;11.67;100.00
47104;BME280;32853;52.164;5.400;2023-02-19T07:13:36;101915.66;;;10.98;100.00
47104;BME280;32853;52.164;5.400;2023-02-19T07:16:07;101998.88;;;11.55;100.00
47104;BME280;32853;52.164;5.400;2023-02-19T07:18:33;101983.28;;;11.50;100.00
47104;BME280;32853;52.164;5.400;2023-02-19T07:21:03;102014.16;;;11.72;100.00
47104;BME280;32853;52.164;5.400;2023-02-19T07:23:28;102031.66;;;11.71;100.00
47104;BME280;32853;52.164;5.400;2023-02-19T07:25:57;102009.81;;;11.37;100.00
47104;BME280;32853;52.164;5.400;2023-02-19T07:28:23;102000.41;;;11.28;100.00
47104;BME280;32853;52.164;5.400;2023-02-19T07:30:49;102023.38;;;11.52;100.00
47104;BME280;32853;52.164;5.400;2023-02-19T07:33:15;102030.06;;;11.66;100.00
47104;BME280;32853;52.164;5.400;2023-02-19T07:35:47;102042.84;;;11.79;100.00
47104;BME280;32853;52.164;5.400;2023-02-19T07:38:17;102063.72;;;11.82;100.00
47104;BME280;32853;52.164;5.400;2023-02-19T07:40:58;102056.81;;;11.78;100.00
47104;BME280;32853;52.164;5.400;2023-02-19T07:43:25;102055.16;;;11.74;100.00
47104;BME280;32853;52.164;5.400;2023-02-19T07:45:51;102003.47;;;11.47;100.00
47104;BME280;32853;52.164;5.400;2023-02-19T07:48:17;101994.56;;;11.52;100.00
47104;BME280;32853;52.164;5.400;2023-02-19T07:50:50;102044.66;;;11.76;100.00
47104;BME280;32853;52.164;5.400;2023-02-19T07:53:15;102032.47;;;11.73;100.00
47104;BME280;32853;52.164;5.400;2023-02-19T07:55:41;102063.00;;;11.74;100.00
47104;BME280;32853;52.164;5.400;2023-02-19T07:58:06;102069.63;;;11.90;100.00
47104;BME280;32853;52.164;5.400;2023-02-19T08:00:31;102079.03;;;11.99;100.00
47104;BME280;32853;52.164;5.400;2023-02-19T08:02:57;102078.03;;;12.03;100.00
47104;BME280;32853;52.164;5.400;2023-02-19T08:05:30;102010.31;;;11.51;100.00
47104;BME280;32853;52.164;5.400;2023-02-19T08:07:57;102087.94;;;11.92;100.00
47104;BME280;32853;52.164;5.400;2023-02-19T08:10:23;102076.00;;;11.80;100.00
47104;BME280;32853;52.164;5.400;2023-02-19T08:13:10;102094.75;;;11.99;100.00
47104;BME280;32853;52.164;5.400;2023-02-19T08:15:51;102081.84;;;11.91;100.00
47104;BME280;32853;52.164;5.400;2023-02-19T08:18:20;102077.59;;;11.87;100.00
47104;BME280;32853;52.164;5.400;2023-02-19T08:20:46;102079.59;;;11.76;100.00
47104;BME280;32853;52.164;5.400;2023-02-19T08:23:11;102113.44;;;11.87;100.00
47104;BME280;32853;52.164;5.400;2023-02-19T08:25:37;102118.50;;;11.93;100.00
47104;BME280;32853;52.164;5.400;2023-02-19T08:28:04;102114.13;;;11.93;100.00
47104;BME280;32853;52.164;5.400;2023-02-19T08:30:31;102126.97;;;12.04;100.00
47104;BME280;32853;52.164;5.400;2023-02-19T08:32:57;102144.72;;;11.93;100.00
47104;BME280;32853;52.164;5.400;2023-02-19T08:35:24;102131.84;;;11.84;100.00
47104;BME280;32853;52.164;5.400;2023-02-19T08:37:50;102095.63;;;11.62;100.00
47104;BME280;32853;52.164;5.400;2023-02-19T08:40:15;102062.94;;;11.42;100.00
47104;BME280;32853;52.164;5.400;2023-02-19T08:42:41;102086.13;;;11.58;100.00
47104;BME280;32853;52.164;5.400;2023-02-19T08:45:06;102139.59;;;11.88;100.00
47104;BME280;32853;52.164;5.400;2023-02-19T08:47:34;102090.50;;;11.58;100.00
47104;BME280;32853;52.164;5.400;2023-02-19T08:50:00;102077.69;;;11.46;100.00
47104;BME280;32853;52.164;5.400;2023-02-19T08:52:30;102089.78;;;11.53;100.00
47104;BME280;32853;52.164;5.400;2023-02-19T08:55:01;102154.47;;;11.49;100.00
47104;BME280;32853;52.164;5.400;2023-02-19T08:57:27;102114.31;;;11.49;100.00
47104;BME280;32853;52.164;5.400;2023-02-19T08:59:54;102141.59;;;11.77;100.00
47104;BME280;32853;52.164;5.400;2023-02-19T09:02:21;102103.72;;;11.53;100.00
47104;BME280;32853;52.164;5.400;2023-02-19T09:04:47;102137.41;;;11.69;100.00
47104;BME280;32853;52.164;5.400;2023-02-19T09:07:12;102121.66;;;11.70;100.00
47104;BME280;32853;52.164;5.400;2023-02-19T09:09:38;102139.81;;;11.78;100.00
47104;BME280;32853;52.164;5.400;2023-02-19T09:12:08;102147.13;;;11.65;100.00
47104;BME280;32853;52.164;5.400;2023-02-19T09:14:35;102156.16;;;11.90;100.00
47104;BME280;32853;52.164;5.400;2023-02-19T09:17:01;102174.53;;;11.89;100.00
47104;BME280;32853;52.164;5.400;2023-02-19T09:19:27;102150.94;;;11.89;100.00
47104;BME280;32853;52.164;5.400;2023-02-19T09:21:53;102162.72;;;12.08;100.00
47104;BME280;32853;52.164;5.400;2023-02-19T09:24:19;102170.63;;;12.05;100.00
47104;BME280;32853;52.164;5.400;2023-02-19T09:26:48;102164.72;;;11.97;100.00
47104;BME280;32853;52.164;5.400;2023-02-19T09:29:14;102175.25;;;11.96;100.00
47104;BME280;32853;52.164;5.400;2023-02-19T09:31:41;102209.19;;;12.02;100.00
47104;BME280;32853;52.164;5.400;2023-02-19T09:34:06;102205.88;;;11.93;100.00
47104;BME280;32853;52.164;5.400;2023-02-19T09:36:32;102201.69;;;11.86;100.00
47104;BME280;32853;52.164;5.400;2023-02-19T09:38:58;102200.78;;;11.87;100.00
47104;BME280;32853;52.164;5.400;2023-02-19T09:41:32;102138.50;;;11.60;100.00
47104;BME280;32853;52.164;5.400;2023-02-19T09:43:59;102191.09;;;11.91;100.00
47104;BME280;32853;52.164;5.400;2023-02-19T09:46:37;102233.59;;;12.04;100.00
47104;BME280;32853;52.164;5.400;2023-02-19T09:49:12;102239.75;;;11.64;100.00
47104;BME280;32853;52.164;5.400;2023-02-19T09:51:40;102238.13;;;11.57;100.00
47104;BME280;32853;52.164;5.400;2023-02-19T09:54:13;102227.56;;;11.18;100.00
47104;BME280;32853;52.164;5.400;2023-02-19T09:56:44;102264.63;;;11.00;100.00
47104;BME280;32853;52.164;5.400;2023-02-19T09:59:40;102254.81;;;10.62;100.00
47104;BME280;32853;52.164;5.400;2023-02-19T10:02:20;102268.94;;;10.52;100.00
47104;BME280;32853;52.164;5.400;2023-02-19T10:04:46;102194.47;;;10.23;100.00
47104;BME280;32853;52.164;5.400;2023-02-19T10:07:18;102272.25;;;10.63;100.00
47104;BME280;32853;52.164;5.400;2023-02-19T10:09:49;102232.88;;;10.70;100.00
47104;BME280;32853;52.164;5.400;2023-02-19T10:12:26;102165.09;;;10.06;100.00
47104;BME280;32853;52.164;5.400;2023-02-19T10:14:59;102299.34;;;11.10;100.00
47104;BME280;32853;52.164;5.400;2023-02-19T10:17:31;102297.31;;;11.24;100.00
47104;BME280;32853;52.164;5.400;2023-02-19T10:20:02;102315.06;;;11.10;100.00
47104;BME280;32853;52.164;5.400;2023-02-19T10:22:31;102265.00;;;10.79;100.00
47104;BME280;32853;52.164;5.400;2023-02-19T10:24:57;102294.00;;;11.14;100.00
47104;BME280;32853;52.164;5.400;2023-02-19T10:27:26;102282.69;;;10.66;100.00
47104;BME280;32853;52.164;5.400;2023-02-19T10:29:54;102335.38;;;10.94;100.00
47104;BME280;32853;52.164;5.400;2023-02-19T10:32:22;102310.09;;;10.93;100.00
47104;BME280;32853;52.164;5.400;2023-02-19T10:37:32;102325.28;;;10.72;100.00
47104;BME280;32853;52.164;5.400;2023-02-19T10:39:59;102324.09;;;10.92;100.00
47104;BME280;32853;52.164;5.400;2023-02-19T10:42:25;102342.09;;;11.10;100.00
47104;BME280;32853;52.164;5.400;2023-02-19T10:44:56;102348.25;;;11.06;100.00
47104;BME280;32853;52.164;5.400;2023-02-19T10:47:25;102262.97;;;10.45;100.00
47104;BME280;32853;52.164;5.400;2023-02-19T10:49:51;102312.84;;;10.87;100.00
47104;BME280;32853;52.164;5.400;2023-02-19T10:52:26;102340.47;;;11.03;100.00
47104;BME280;32853;52.164;5.400;2023-02-19T10:57:56;102340.13;;;11.23;100.00
47104;BME280;32853;52.164;5.400;2023-02-19T11:00:33;102289.69;;;11.12;100.00
47104;BME280;32853;52.164;5.400;2023-02-19T11:03:23;102335.16;;;11.52;100.00
47104;BME280;32853;52.164;5.400;2023-02-19T11:06:01;102321.56;;;11.33;100.00
47104;BME280;32853;52.164;5.400;2023-02-19T11:08:28;102304.47;;;10.66;100.00
47104;BME280;32853;52.164;5.400;2023-02-19T11:10:58;102333.84;;;10.82;100.00
47104;BME280;32853;52.164;5.400;2023-02-19T11:13:28;102325.00;;;10.89;100.00
47104;BME280;32853;52.164;5.400;2023-02-19T11:15:58;102302.88;;;10.58;100.00
47104;BME280;32853;52.164;5.400;2023-02-19T11:18:31;102358.19;;;10.89;100.00
47104;BME280;32853;52.164;5.400;2023-02-19T11:20:59;102301.19;;;10.52;100.00
47104;BME280;32853;52.164;5.400;2023-02-19T11:23:28;102294.22;;;10.53;100.00
47104;BME280;32853;52.164;5.400;2023-02-19T11:25:58;102300.78;;;10.21;100.00
47104;BME280;32853;52.164;5.400;2023-02-19T11:28:40;102352.16;;;10.82;100.00
47104;BME280;32853;52.164;5.400;2023-02-19T11:36:37;102344.50;;;10.71;100.00
47104;BME280;32853;52.164;5.400;2023-02-19T11:41:50;102366.22;;;10.76;100.00
47104;BME280;32853;52.164;5.400;2023-02-19T11:50:24;102362.84;;;10.70;100.00
47104;BME280;32853;52.164;5.400;2023-02-19T11:53:03;102358.13;;;10.90;100.00
47104;BME280;32853;52.164;5.400;2023-02-19T11:58:58;102364.66;;;10.63;100.00
47104;BME280;32853;52.164;5.400;2023-02-19T12:01:49;102356.03;;;9.98;100.00
47104;BME280;32853;52.164;5.400;2023-02-19T12:07:14;102357.75;;;9.99;100.00
47104;BME280;32853;52.164;5.400;2023-02-19T12:15:31;102377.28;;;9.68;100.00
47104;BME280;32853;52.164;5.400;2023-02-19T12:34:23;102373.81;;;9.64;100.00
47104;BME280;32853;52.164;5.400;2023-02-19T12:45:45;102391.50;;;9.42;100.00
47104;BME280;32853;52.164;5.400;2023-02-19T12:48:28;102337.13;;;8.98;100.00
47104;BME280;32853;52.164;5.400;2023-02-19T12:51:19;102394.28;;;9.25;100.00
47104;BME280;32853;52.164;5.400;2023-02-19T12:56:46;102407.72;;;8.75;100.00
47104;BME280;32853;52.164;5.400;2023-02-19T13:05:22;102419.34;;;9.42;100.00
47104;BME280;32853;52.164;5.400;2023-02-19T13:08:37;102421.75;;;9.65;100.00
47104;BME280;32853;52.164;5.400;2023-02-19T13:11:00;102429.59;;;9.61;100.00
47104;BME280;32853;52.164;5.400;2023-02-19T13:13:40;102432.63;;;9.17;100.00
47104;BME280;32853;52.164;5.400;2023-02-19T13:16:11;102444.00;;;9.10;100.00
47104;BME280;32853;52.164;5.400;2023-02-19T13:18:43;102423.19;;;9.01;100.00
47104;BME280;32853;52.164;5.400;2023-02-19T13:21:13;102424.97;;;8.94;100.00
47104;BME280;32853;52.164;5.400;2023-02-19T13:24:05;102456.91;;;9.27;100.00
47104;BME280;32853;52.164;5.400;2023-02-19T13:33:21;102460.41;;;10.10;100.00
47104;BME280;32853;52.164;5.400;2023-02-19T13:38:40;102470.56;;;9.58;100.00
47104;BME280;32853;52.164;5.400;2023-02-19T13:41:16;102421.94;;;9.42;100.00
47104;BME280;32853;52.164;5.400;2023-02-19T13:43:43;102446.16;;;9.60;100.00
47104;BME280;32853;52.164;5.400;2023-02-19T13:46:34;102480.72;;;9.87;100.00
47104;BME280;32853;52.164;5.400;2023-02-19T13:59:56;102472.22;;;10.45;100.00
47104;BME280;32853;52.164;5.400;2023-02-19T14:02:31;102445.06;;;10.54;100.00
47104;BME280;32853;52.164;5.400;2023-02-19T14:09:59;102488.66;;;10.52;100.00
47104;BME280;32853;52.164;5.400;2023-02-19T14:12:36;102484.25;;;10.58;100.00
47104;BME280;32853;52.164;5.400;2023-02-19T14:18:01;102480.84;;;10.53;100.00
47104;BME280;32853;52.164;5.400;2023-02-19T14:20:40;102479.50;;;10.85;100.00
47104;BME280;32853;52.164;5.400;2023-02-19T14:23:16;102424.56;;;10.23;100.00
47104;BME280;32853;52.164;5.400;2023-02-19T14:25:57;102414.50;;;10.57;100.00
47104;BME280;32853;52.164;5.400;2023-02-19T14:28:45;102480.16;;;10.99;100.00
47104;BME280;32853;52.164;5.400;2023-02-19T14:31:35;102465.47;;;10.90;100.00
47104;BME280;32853;52.164;5.400;2023-02-19T14:34:12;102423.16;;;10.59;100.00
47104;BME280;32853;52.164;5.400;2023-02-19T14:37:15;102427.66;;;10.51;100.00
47104;BME280;32853;52.164;5.400;2023-02-19T14:39:38;102451.91;;;10.62;100.00
47104;BME280;32853;52.164;5.400;2023-02-19T14:42:06;102397.28;;;10.39;100.00
47104;BME280;32853;52.164;5.400;2023-02-19T14:44:55;102435.84;;;10.88;100.00
47104;BME280;32853;52.164;5.400;2023-02-19T14:47:23;102443.53;;;10.99;100.00
47104;BME280;32853;52.164;5.400;2023-02-19T14:49:54;102426.28;;;10.84;100.00
47104;BME280;32853;52.164;5.400;2023-02-19T14:52:43;102430.66;;;10.84;100.00
47104;BME280;32853;52.164;5.400;2023-02-19T14:55:44;102441.59;;;11.10;100.00